Time;durP1;ratioP1;P1;durP2;ratioP2;P2;SDS_P1;SDS_P2;PMS_P1;PMS_P2;Temp;Humidity;BMP_temperature;BMP_pressure;BME280_temperature;BME280_humidity;BME280_pressure;Samples;Min_cycle;Max_cycle;Signal;HPM_P1;HPM_P2
2024/02/14 00:00:04;;;;;;;5.87;2.50;;;;;;;;;;604731;23;1158;-79
2024/02/14 00:00:25;;;;;;;5.75;2.47;;;;;;;;;;607195;23;872;-79
2024/02/14 00:00:41;;;;;;;4.50;2.30;;;;;;;;;;603381;23;1061;-80
2024/02/14 00:00:56;;;;;;;5.85;2.50;;;;;;;;;;603658;23;995;-80
2024/02/14 00:01:12;;;;;;;5.23;2.47;;;;;;;;;;603580;23;1393;-80
2024/02/14 00:01:27;;;;;;;4.75;2.33;;;;;;;;;;601027;23;840;-80
2024/02/14 00:01:43;;;;;;;4.20;2.23;;;;;;;;;;601090;23;967;-80
2024/02/14 00:01:58;;;;;;;3.85;2.10;;;;;;;;;;600490;23;1305;-80
2024/02/14 00:02:14;;;;;;;4.30;2.20;;;;;;;;;;600980;23;1036;-80
2024/02/14 00:02:29;;;;;;;4.63;2.30;;;;;;;;;;604112;23;1027;-76
2024/02/14 00:02:45;;;;;;;5.27;2.33;;;;;;;;;;602736;23;1036;-81
2024/02/14 00:03:01;;;;;;;5.30;2.40;;;;;;;;;;603807;23;1271;-81
2024/02/14 00:03:16;;;;;;;5.17;2.60;;;;;;;;;;605358;23;1313;-80
2024/02/14 00:03:32;;;;;;;4.28;2.40;;;;;;;;;;602084;23;927;-80
2024/02/14 00:03:47;;;;;;;4.00;2.13;;;;;;;;;;603317;23;919;-80
2024/02/14 00:04:03;;;;;;;5.10;2.27;;;;;;;;;;603485;23;949;-80
2024/02/14 00:04:20;;;;;;;5.13;2.25;;;;;;;;;;602650;23;1041;-80
2024/02/14 00:04:35;;;;;;;3.95;2.13;;;;;;;;;;599989;23;1008;-80
2024/02/14 00:04:50;;;;;;;3.93;2.37;;;;;;;;;;599849;23;1170;-80
2024/02/14 00:05:07;;;;;;;3.78;2.30;;;;;;;;;;598933;23;917;-80
2024/02/14 00:05:23;;;;;;;3.40;2.28;;;;;;;;;;603397;23;1030;-80
2024/02/14 00:05:40;;;;;;;4.97;2.58;;;;;;;;;;602574;23;1044;-80
2024/02/14 00:05:57;;;;;;;5.65;2.63;;;;;;;;;;603338;23;1171;-80
2024/02/14 00:06:13;;;;;;;5.22;2.70;;;;;;;;;;598789;23;874;-80
2024/02/14 00:06:28;;;;;;;4.30;2.40;;;;;;;;;;601307;23;1185;-79
2024/02/14 00:06:45;;;;;;;4.20;2.33;;;;;;;;;;601944;23;920;-81
2024/02/14 00:07:00;;;;;;;5.00;2.33;;;;;;;;;;599771;23;1419;-81
2024/02/14 00:07:15;;;;;;;4.70;2.27;;;;;;;;;;600036;23;1060;-80
2024/02/14 00:07:31;;;;;;;4.18;2.25;;;;;;;;;;599948;23;1060;-81
2024/02/14 00:07:46;;;;;;;5.03;2.20;;;;;;;;;;602187;23;1929;-80
2024/02/14 00:08:03;;;;;;;5.67;2.30;;;;;;;;;;602231;23;1166;-81
2024/02/14 00:08:18;;;;;;;4.50;2.42;;;;;;;;;;602528;23;813;-80
2024/02/14 00:08:33;;;;;;;4.35;2.30;;;;;;;;;;602249;23;1173;-80
2024/02/14 00:08:49;;;;;;;4.40;2.20;;;;;;;;;;601620;23;1100;-80
2024/02/14 00:09:04;;;;;;;4.23;2.20;;;;;;;;;;602513;23;895;-80
2024/02/14 00:09:19;;;;;;;4.03;2.15;;;;;;;;;;600748;23;1156;-80
2024/02/14 00:09:35;;;;;;;4.47;2.20;;;;;;;;;;600399;23;1197;-80
2024/02/14 00:09:50;;;;;;;4.47;2.10;;;;;;;;;;599616;23;1102;-79
2024/02/14 00:10:07;;;;;;;3.72;2.00;;;;;;;;;;601314;23;1077;-80
2024/02/14 00:10:23;;;;;;;3.55;1.98;;;;;;;;;;602804;23;983;-80
2024/02/14 00:10:39;;;;;;;4.40;2.10;;;;;;;;;;602189;23;1081;-80
2024/02/14 00:10:54;;;;;;;4.82;2.20;;;;;;;;;;598217;23;971;-80
2024/02/14 00:11:10;;;;;;;5.13;2.20;;;;;;;;;;599699;23;977;-80
2024/02/14 00:11:26;;;;;;;5.00;2.10;;;;;;;;;;599742;23;1062;-80
2024/02/14 00:11:41;;;;;;;4.47;2.10;;;;;;;;;;600407;23;871;-80
2024/02/14 00:11:57;;;;;;;4.57;2.13;;;;;;;;;;599031;23;1288;-80
2024/02/14 00:12:12;;;;;;;4.87;2.30;;;;;;;;;;598792;23;753;-80
2024/02/14 00:12:28;;;;;;;4.85;2.20;;;;;;;;;;599795;23;1203;-80
2024/02/14 00:12:44;;;;;;;4.53;2.00;;;;;;;;;;600277;23;796;-80
2024/02/14 00:12:59;;;;;;;4.07;1.85;;;;;;;;;;602123;23;1101;-80
2024/02/14 00:13:18;;;;;;;3.93;2.00;;;;;;;;;;602776;23;1215;-80
2024/02/14 00:13:34;;;;;;;4.18;1.90;;;;;;;;;;602186;23;832;-80
2024/02/14 00:13:49;;;;;;;4.10;1.80;;;;;;;;;;602003;23;860;-80
2024/02/14 00:14:07;;;;;;;3.70;1.90;;;;;;;;;;601942;23;804;-80
2024/02/14 00:14:22;;;;;;;3.30;1.90;;;;;;;;;;601119;23;1023;-80
2024/02/14 00:14:38;;;;;;;3.63;1.90;;;;;;;;;;600470;23;987;-80
2024/02/14 00:14:54;;;;;;;5.90;2.30;;;;;;;;;;600875;23;1140;-80
2024/02/14 00:15:09;;;;;;;6.23;2.50;;;;;;;;;;600815;23;1287;-80
2024/02/14 00:15:27;;;;;;;4.43;2.10;;;;;;;;;;601223;23;928;-80
2024/02/14 00:15:42;;;;;;;3.88;1.80;;;;;;;;;;602482;23;964;-80
2024/02/14 00:15:58;;;;;;;4.22;1.90;;;;;;;;;;601644;23;796;-80
2024/02/14 00:16:13;;;;;;;5.13;2.00;;;;;;;;;;601589;23;1043;-80
2024/02/14 00:16:31;;;;;;;4.65;1.90;;;;;;;;;;603323;23;1214;-80
2024/02/14 00:16:47;;;;;;;3.83;1.80;;;;;;;;;;604219;23;1126;-81
2024/02/14 00:17:03;;;;;;;4.75;1.80;;;;;;;;;;605312;23;1256;-81
2024/02/14 00:17:19;;;;;;;4.65;2.00;;;;;;;;;;603610;23;1122;-80
2024/02/14 00:17:35;;;;;;;4.03;1.92;;;;;;;;;;604432;23;855;-80
2024/02/14 00:17:50;;;;;;;3.80;1.92;;;;;;;;;;604195;23;1262;-80
2024/02/14 00:18:06;;;;;;;3.67;1.90;;;;;;;;;;601183;23;1294;-80
2024/02/14 00:18:22;;;;;;;3.40;1.77;;;;;;;;;;595961;23;1145;-80
2024/02/14 00:18:37;;;;;;;3.22;1.70;;;;;;;;;;599003;23;1160;-80
2024/02/14 00:18:53;;;;;;;3.23;1.70;;;;;;;;;;593537;23;1152;-81
2024/02/14 00:19:08;;;;;;;3.92;1.92;;;;;;;;;;592243;23;1026;-80
2024/02/14 00:19:23;;;;;;;5.00;2.00;;;;;;;;;;594062;23;801;-80
2024/02/14 00:19:39;;;;;;;5.17;1.87;;;;;;;;;;593334;23;928;-81
2024/02/14 00:19:55;;;;;;;4.00;1.75;;;;;;;;;;594256;23;1228;-80
2024/02/14 00:20:12;;;;;;;3.60;1.70;;;;;;;;;;594205;23;884;-81
2024/02/14 00:20:27;;;;;;;4.25;2.05;;;;;;;;;;597452;23;1130;-81
2024/02/14 00:20:44;;;;;;;3.40;1.85;;;;;;;;;;603022;23;915;-80
2024/02/14 00:21:00;;;;;;;3.10;1.77;;;;;;;;;;602373;23;1310;-80
2024/02/14 00:21:15;;;;;;;4.22;1.83;;;;;;;;;;602888;23;1009;-80
2024/02/14 00:21:31;;;;;;;4.60;1.80;;;;;;;;;;599019;23;1284;-80
2024/02/14 00:21:47;;;;;;;4.60;1.88;;;;;;;;;;598561;23;1225;-81
2024/02/14 00:22:02;;;;;;;4.65;1.80;;;;;;;;;;599131;23;1094;-80
2024/02/14 00:22:18;;;;;;;4.10;1.70;;;;;;;;;;599230;23;990;-80
2024/02/14 00:22:33;;;;;;;4.20;1.77;;;;;;;;;;596541;23;1042;-80
2024/02/14 00:22:49;;;;;;;4.27;1.80;;;;;;;;;;597488;23;1375;-80
2024/02/14 00:23:04;;;;;;;3.83;1.77;;;;;;;;;;598970;23;1037;-80
2024/02/14 00:23:20;;;;;;;3.50;1.70;;;;;;;;;;601603;23;902;-82
2024/02/14 00:23:37;;;;;;;4.67;2.00;;;;;;;;;;596095;23;1269;-81
2024/02/14 00:23:52;;;;;;;5.15;1.90;;;;;;;;;;596799;23;1221;-81
2024/02/14 00:24:07;;;;;;;3.37;1.60;;;;;;;;;;596315;23;899;-81
2024/02/14 00:24:23;;;;;;;3.60;1.70;;;;;;;;;;597450;23;959;-80
2024/02/14 00:24:39;;;;;;;4.70;1.83;;;;;;;;;;597649;23;967;-80
2024/02/14 00:24:54;;;;;;;4.60;1.85;;;;;;;;;;598910;23;886;-81
2024/02/14 00:25:10;;;;;;;4.40;1.83;;;;;;;;;;598681;23;1092;-80
2024/02/14 00:25:25;;;;;;;4.28;1.85;;;;;;;;;;600139;23;967;-80
2024/02/14 00:25:41;;;;;;;5.27;1.80;;;;;;;;;;599469;23;1159;-80
2024/02/14 00:25:56;;;;;;;5.05;1.70;;;;;;;;;;597411;23;1261;-80
2024/02/14 00:26:11;;;;;;;3.23;1.67;;;;;;;;;;596759;23;1261;-81
2024/02/14 00:26:27;;;;;;;3.30;1.70;;;;;;;;;;596782;23;1089;-80
2024/02/14 00:26:42;;;;;;;3.83;1.73;;;;;;;;;;596141;23;968;-80
2024/02/14 00:26:58;;;;;;;3.90;1.67;;;;;;;;;;599035;23;1106;-80
2024/02/14 00:27:14;;;;;;;3.15;1.60;;;;;;;;;;599226;23;907;-80
2024/02/14 00:27:35;;;;;;;2.35;1.63;;;;;;;;;;598649;23;1191;-80
2024/02/14 00:27:50;;;;;;;3.80;1.83;;;;;;;;;;598485;23;1925;-80
2024/02/14 00:28:06;;;;;;;4.17;1.83;;;;;;;;;;598939;23;1027;-81
2024/02/14 00:28:23;;;;;;;3.92;1.80;;;;;;;;;;599326;23;1103;-80
2024/02/14 00:28:39;;;;;;;4.03;1.98;;;;;;;;;;599023;23;1041;-80
2024/02/14 00:28:55;;;;;;;3.50;1.70;;;;;;;;;;599374;23;1034;-80
2024/02/14 00:29:10;;;;;;;3.63;1.57;;;;;;;;;;596112;23;1092;-80
2024/02/14 00:29:26;;;;;;;4.27;1.63;;;;;;;;;;598372;23;1134;-80
2024/02/14 00:29:44;;;;;;;4.32;1.73;;;;;;;;;;598796;23;1057;-80
2024/02/14 00:30:00;;;;;;;3.40;1.70;;;;;;;;;;598076;23;1109;-80
2024/02/14 00:30:15;;;;;;;3.30;1.67;;;;;;;;;;598381;23;961;-79
2024/02/14 00:30:31;;;;;;;2.90;1.35;;;;;;;;;;598077;23;1367;-79
2024/02/14 00:30:47;;;;;;;2.97;1.37;;;;;;;;;;598686;23;1134;-79
2024/02/14 00:31:03;;;;;;;3.38;1.50;;;;;;;;;;600807;23;1180;-80
2024/02/14 00:31:18;;;;;;;3.28;1.55;;;;;;;;;;598812;23;1321;-80
2024/02/14 00:31:34;;;;;;;2.78;1.55;;;;;;;;;;599366;23;898;-80
2024/02/14 00:31:50;;;;;;;3.73;1.50;;;;;;;;;;597091;23;1294;-80
2024/02/14 00:32:05;;;;;;;4.25;1.42;;;;;;;;;;596549;23;1021;-80
2024/02/14 00:32:21;;;;;;;3.97;1.30;;;;;;;;;;597247;23;1384;-80
2024/02/14 00:32:36;;;;;;;4.50;1.53;;;;;;;;;;601368;23;1125;-80
2024/02/14 00:32:52;;;;;;;4.85;1.70;;;;;;;;;;597689;23;1092;-81
2024/02/14 00:33:07;;;;;;;4.37;1.63;;;;;;;;;;597834;23;1282;-80
2024/02/14 00:33:23;;;;;;;3.20;1.50;;;;;;;;;;597943;23;910;-80
2024/02/14 00:33:38;;;;;;;3.30;1.53;;;;;;;;;;598643;23;1093;-81
2024/02/14 00:33:53;;;;;;;3.90;1.70;;;;;;;;;;598351;23;1307;-80
2024/02/14 00:34:09;;;;;;;3.77;1.50;;;;;;;;;;598490;23;1030;-80
2024/02/14 00:34:24;;;;;;;3.20;1.40;;;;;;;;;;597934;23;940;-80
2024/02/14 00:34:40;;;;;;;3.45;1.50;;;;;;;;;;595513;23;1053;-80
2024/02/14 00:34:55;;;;;;;3.43;1.50;;;;;;;;;;599298;23;952;-81
2024/02/14 00:35:10;;;;;;;3.33;1.43;;;;;;;;;;600376;23;1057;-81
2024/02/14 00:35:26;;;;;;;3.03;1.35;;;;;;;;;;602317;23;1084;-80
2024/02/14 00:35:42;;;;;;;4.33;1.60;;;;;;;;;;601577;23;1179;-81
2024/02/14 00:35:57;;;;;;;4.68;1.85;;;;;;;;;;604153;23;1050;-80
2024/02/14 00:36:12;;;;;;;3.67;1.70;;;;;;;;;;604550;23;883;-81
2024/02/14 00:36:28;;;;;;;3.28;1.58;;;;;;;;;;604192;23;1038;-81
2024/02/14 00:36:43;;;;;;;3.50;1.60;;;;;;;;;;605303;23;1244;-80
2024/02/14 00:36:59;;;;;;;4.00;1.70;;;;;;;;;;602038;23;1120;-81
2024/02/14 00:37:14;;;;;;;3.90;1.70;;;;;;;;;;602433;23;974;-81
2024/02/14 00:37:30;;;;;;;4.22;1.80;;;;;;;;;;599274;23;1055;-81
2024/02/14 00:37:45;;;;;;;4.73;1.80;;;;;;;;;;599310;23;1154;-80
2024/02/14 00:38:00;;;;;;;4.00;1.90;;;;;;;;;;598270;23;1172;-81
2024/02/14 00:38:16;;;;;;;3.37;1.80;;;;;;;;;;595526;23;1031;-81
2024/02/14 00:38:31;;;;;;;3.87;1.57;;;;;;;;;;596356;23;1016;-81
2024/02/14 00:38:47;;;;;;;4.15;1.60;;;;;;;;;;596185;23;932;-80
2024/02/14 00:39:02;;;;;;;4.80;1.70;;;;;;;;;;598215;23;1243;-81
2024/02/14 00:39:18;;;;;;;4.68;1.70;;;;;;;;;;599476;23;982;-80
2024/02/14 00:39:33;;;;;;;4.67;1.70;;;;;;;;;;598340;23;1121;-80
2024/02/14 00:39:50;;;;;;;5.10;1.80;;;;;;;;;;597033;23;993;-81
2024/02/14 00:40:06;;;;;;;4.47;1.70;;;;;;;;;;593410;23;1205;-81
2024/02/14 00:40:22;;;;;;;3.95;1.75;;;;;;;;;;596591;23;1346;-81
2024/02/14 00:40:38;;;;;;;5.32;2.00;;;;;;;;;;597019;23;1154;-81
2024/02/14 00:40:54;;;;;;;5.28;1.90;;;;;;;;;;596838;23;860;-81
2024/02/14 00:41:12;;;;;;;4.95;1.90;;;;;;;;;;600024;23;749;-81
2024/02/14 00:41:29;;;;;;;4.40;1.90;;;;;;;;;;599840;23;821;-83
2024/02/14 00:41:47;;;;;;;3.20;1.48;;;;;;;;;;601293;23;971;-81
2024/02/14 00:42:02;;;;;;;4.72;1.60;;;;;;;;;;600485;23;1183;-80
2024/02/14 00:42:18;;;;;;;3.10;1.55;;;;;;;;;;597509;23;1178;-81
2024/02/14 00:42:33;;;;;;;2.90;1.50;;;;;;;;;;597550;23;1134;-81
2024/02/14 00:42:50;;;;;;;2.80;1.37;;;;;;;;;;599450;23;1079;-81
2024/02/14 00:43:05;;;;;;;2.17;1.17;;;;;;;;;;598531;23;1129;-81
2024/02/14 00:43:20;;;;;;;2.80;1.30;;;;;;;;;;600900;23;1106;-81
2024/02/14 00:43:37;;;;;;;3.67;1.47;;;;;;;;;;601201;23;994;-81
2024/02/14 00:43:52;;;;;;;3.95;1.40;;;;;;;;;;601439;23;988;-82
2024/02/14 00:44:08;;;;;;;3.90;1.30;;;;;;;;;;598696;23;1128;-82
2024/02/14 00:44:24;;;;;;;3.37;1.20;;;;;;;;;;601735;23;1127;-81
2024/02/14 00:44:40;;;;;;;3.20;1.10;;;;;;;;;;601768;23;801;-80
2024/02/14 00:44:55;;;;;;;3.23;1.13;;;;;;;;;;598431;23;1231;-81
2024/02/14 00:45:10;;;;;;;2.70;1.10;;;;;;;;;;599275;23;949;-81
2024/02/14 00:45:26;;;;;;;2.30;1.13;;;;;;;;;;598930;23;929;-82
2024/02/14 00:45:42;;;;;;;2.70;1.20;;;;;;;;;;599602;23;1014;-81
2024/02/14 00:45:58;;;;;;;3.08;1.20;;;;;;;;;;596650;23;1228;-82
2024/02/14 00:46:17;;;;;;;2.60;1.30;;;;;;;;;;599262;23;885;-81
2024/02/14 00:46:32;;;;;;;3.35;1.38;;;;;;;;;;599445;23;1162;-80
2024/02/14 00:46:48;;;;;;;3.27;1.40;;;;;;;;;;598937;23;968;-81
2024/02/14 00:47:03;;;;;;;2.42;1.20;;;;;;;;;;595366;23;1308;-82
2024/02/14 00:47:19;;;;;;;2.33;1.03;;;;;;;;;;596156;23;1042;-81
2024/02/14 00:47:35;;;;;;;2.65;1.00;;;;;;;;;;595335;23;946;-84
2024/02/14 00:47:51;;;;;;;2.65;1.00;;;;;;;;;;597065;23;2255;-83
2024/02/14 00:48:07;;;;;;;3.20;0.98;;;;;;;;;;594028;23;1205;-84
2024/02/14 00:48:23;;;;;;;3.13;0.95;;;;;;;;;;595953;23;927;-83
2024/02/14 00:48:38;;;;;;;3.07;1.07;;;;;;;;;;592871;23;1122;-81
2024/02/14 00:48:54;;;;;;;3.40;1.15;;;;;;;;;;590942;23;1153;-83
2024/02/14 00:49:10;;;;;;;3.03;1.05;;;;;;;;;;592959;23;1030;-83
2024/02/14 00:49:26;;;;;;;2.78;1.02;;;;;;;;;;593885;23;931;-82
2024/02/14 00:49:42;;;;;;;3.08;1.05;;;;;;;;;;592817;23;1172;-82
2024/02/14 00:49:58;;;;;;;2.08;0.88;;;;;;;;;;593162;23;1156;-81
2024/02/14 00:50:13;;;;;;;2.58;1.00;;;;;;;;;;592151;23;1066;-81
2024/02/14 00:50:29;;;;;;;3.03;1.17;;;;;;;;;;595655;23;1041;-82
2024/02/14 00:50:44;;;;;;;2.60;1.10;;;;;;;;;;596374;23;1026;-80
2024/02/14 00:51:00;;;;;;;3.57;1.10;;;;;;;;;;596251;23;1013;-81
2024/02/14 00:51:15;;;;;;;4.07;1.13;;;;;;;;;;598684;23;1143;-80
2024/02/14 00:51:30;;;;;;;3.17;1.00;;;;;;;;;;595110;23;1279;-81
2024/02/14 00:51:46;;;;;;;3.37;1.10;;;;;;;;;;589960;23;1202;-81
2024/02/14 00:52:01;;;;;;;3.20;1.17;;;;;;;;;;593969;23;1216;-81
2024/02/14 00:52:17;;;;;;;2.07;1.03;;;;;;;;;;596419;23;1307;-81
2024/02/14 00:52:32;;;;;;;2.78;1.05;;;;;;;;;;596395;23;1321;-82
2024/02/14 00:52:47;;;;;;;4.10;1.20;;;;;;;;;;592161;23;1087;-80
2024/02/14 00:53:03;;;;;;;3.03;1.10;;;;;;;;;;593036;23;1148;-81
2024/02/14 00:53:18;;;;;;;2.30;0.90;;;;;;;;;;598401;23;1128;-82
2024/02/14 00:53:34;;;;;;;2.63;0.90;;;;;;;;;;595424;23;1021;-81
2024/02/14 00:53:49;;;;;;;2.17;0.90;;;;;;;;;;598562;23;1177;-80
2024/02/14 00:54:04;;;;;;;2.53;0.93;;;;;;;;;;598251;23;992;-81
2024/02/14 00:54:20;;;;;;;2.80;1.00;;;;;;;;;;599233;23;1039;-82
2024/02/14 00:54:35;;;;;;;2.25;1.00;;;;;;;;;;598000;23;1106;-83
2024/02/14 00:54:51;;;;;;;2.77;1.10;;;;;;;;;;598691;23;1247;-83
2024/02/14 00:55:06;;;;;;;4.53;1.13;;;;;;;;;;595530;23;1171;-82
2024/02/14 00:55:23;;;;;;;4.63;1.20;;;;;;;;;;596360;23;1225;-84
2024/02/14 00:55:38;;;;;;;3.70;1.20;;;;;;;;;;596488;23;840;-84
2024/02/14 00:55:54;;;;;;;3.10;1.20;;;;;;;;;;595346;23;1108;-80
2024/02/14 00:56:10;;;;;;;2.40;1.08;;;;;;;;;;599562;23;1085;-82
2024/02/14 00:56:25;;;;;;;2.95;1.02;;;;;;;;;;598856;23;1069;-83
2024/02/14 00:56:40;;;;;;;2.50;1.00;;;;;;;;;;599255;23;1077;-83
2024/02/14 00:56:56;;;;;;;2.20;0.90;;;;;;;;;;597437;23;1037;-84
2024/02/14 00:57:12;;;;;;;2.42;0.90;;;;;;;;;;592679;23;1161;-82
2024/02/14 00:57:28;;;;;;;2.33;0.90;;;;;;;;;;594308;23;1123;-83
2024/02/14 00:57:44;;;;;;;2.30;0.90;;;;;;;;;;591144;23;1273;-82
2024/02/14 00:57:59;;;;;;;3.35;0.80;;;;;;;;;;593378;23;947;-81
2024/02/14 00:58:14;;;;;;;3.17;0.90;;;;;;;;;;593024;23;945;-81
2024/02/14 00:58:30;;;;;;;2.40;1.03;;;;;;;;;;594408;23;1047;-81
2024/02/14 00:58:45;;;;;;;2.85;1.05;;;;;;;;;;593645;23;1035;-81
2024/02/14 00:59:00;;;;;;;2.50;1.03;;;;;;;;;;596803;23;1132;-80
2024/02/14 00:59:17;;;;;;;1.65;0.90;;;;;;;;;;599398;23;1079;-82
2024/02/14 00:59:33;;;;;;;2.30;0.98;;;;;;;;;;602274;23;919;-81
2024/02/14 00:59:48;;;;;;;2.50;1.00;;;;;;;;;;604221;23;1216;-81
2024/02/14 01:00:06;;;;;;;3.95;0.98;;;;;;;;;;605427;23;1000;-83
2024/02/14 01:00:22;;;;;;;4.22;1.08;;;;;;;;;;605035;23;1259;-84
2024/02/14 01:00:37;;;;;;;2.58;1.15;;;;;;;;;;604634;23;1386;-82
2024/02/14 01:00:53;;;;;;;2.42;1.00;;;;;;;;;;604306;23;1004;-86
2024/02/14 01:01:08;;;;;;;2.70;1.00;;;;;;;;;;605498;23;784;-85
2024/02/14 01:01:24;;;;;;;2.90;1.10;;;;;;;;;;605684;23;1034;-83
2024/02/14 01:01:41;;;;;;;2.80;1.00;;;;;;;;;;603020;23;1121;-82
2024/02/14 01:01:56;;;;;;;2.35;0.90;;;;;;;;;;599854;23;1258;-82
2024/02/14 01:02:11;;;;;;;1.97;0.90;;;;;;;;;;598808;23;1140;-82
2024/02/14 01:02:27;;;;;;;2.40;0.88;;;;;;;;;;599948;23;900;-83
2024/02/14 01:02:43;;;;;;;2.57;0.80;;;;;;;;;;599418;23;1153;-83
2024/02/14 01:02:58;;;;;;;2.70;0.90;;;;;;;;;;595204;23;1051;-83
2024/02/14 01:03:15;;;;;;;3.15;1.00;;;;;;;;;;596917;23;1230;-82
2024/02/14 01:03:31;;;;;;;2.65;0.98;;;;;;;;;;596574;23;1152;-81
2024/02/14 01:03:46;;;;;;;4.68;1.10;;;;;;;;;;597192;23;926;-81
2024/02/14 01:04:02;;;;;;;6.30;1.10;;;;;;;;;;595697;23;1058;-81
2024/02/14 01:04:18;;;;;;;4.18;0.98;;;;;;;;;;595480;23;1053;-81
2024/02/14 01:04:36;;;;;;;2.20;0.90;;;;;;;;;;593711;23;1009;-82
2024/02/14 01:04:51;;;;;;;2.17;1.02;;;;;;;;;;595249;23;852;-83
2024/02/14 01:05:07;;;;;;;2.85;1.10;;;;;;;;;;596096;23;1060;-88
2024/02/14 01:05:22;;;;;;;3.23;1.00;;;;;;;;;;596124;23;1113;-82
2024/02/14 01:05:38;;;;;;;2.60;0.90;;;;;;;;;;595550;23;1111;-82
2024/02/14 01:05:53;;;;;;;2.47;1.00;;;;;;;;;;596859;23;922;-82
2024/02/14 01:06:09;;;;;;;2.47;1.02;;;;;;;;;;598621;23;1202;-82
2024/02/14 01:06:24;;;;;;;2.53;0.97;;;;;;;;;;600465;23;1251;-83
2024/02/14 01:06:40;;;;;;;3.40;1.00;;;;;;;;;;603114;23;789;-82
2024/02/14 01:06:55;;;;;;;3.43;1.00;;;;;;;;;;601972;23;1017;-83
2024/02/14 01:07:10;;;;;;;2.80;0.90;;;;;;;;;;601496;23;1088;-83
2024/02/14 01:07:26;;;;;;;2.58;0.90;;;;;;;;;;602140;23;812;-82
2024/02/14 01:07:41;;;;;;;2.60;1.00;;;;;;;;;;602482;23;1189;-82
2024/02/14 01:07:56;;;;;;;2.72;1.00;;;;;;;;;;601946;23;1306;-83
2024/02/14 01:08:12;;;;;;;3.07;1.00;;;;;;;;;;605028;23;907;-81
2024/02/14 01:08:28;;;;;;;2.92;1.08;;;;;;;;;;605732;23;757;-80
2024/02/14 01:08:44;;;;;;;2.60;1.10;;;;;;;;;;601777;23;1168;-81
2024/02/14 01:09:01;;;;;;;2.10;0.90;;;;;;;;;;602362;23;737;-81
2024/02/14 01:09:17;;;;;;;2.00;0.90;;;;;;;;;;599312;23;1304;-81
2024/02/14 01:09:32;;;;;;;2.67;1.10;;;;;;;;;;598411;23;1087;-82
2024/02/14 01:09:48;;;;;;;2.38;1.02;;;;;;;;;;598522;23;1076;-81
2024/02/14 01:10:04;;;;;;;2.43;1.00;;;;;;;;;;597909;23;929;-82
2024/02/14 01:10:20;;;;;;;2.40;1.00;;;;;;;;;;598288;23;1120;-81
2024/02/14 01:10:36;;;;;;;2.38;1.00;;;;;;;;;;599707;23;862;-81
2024/02/14 01:10:51;;;;;;;2.40;0.93;;;;;;;;;;597923;23;1137;-80
2024/02/14 01:11:09;;;;;;;2.33;0.90;;;;;;;;;;597091;23;1279;-81
2024/02/14 01:11:25;;;;;;;3.05;1.20;;;;;;;;;;593506;23;1122;-82
2024/02/14 01:11:40;;;;;;;2.80;1.17;;;;;;;;;;594254;23;1014;-82
2024/02/14 01:11:56;;;;;;;2.83;1.10;;;;;;;;;;593187;23;1039;-81
2024/02/14 01:12:11;;;;;;;3.10;1.07;;;;;;;;;;595332;23;1269;-81
2024/02/14 01:12:26;;;;;;;2.65;0.95;;;;;;;;;;596827;23;1229;-82
2024/02/14 01:12:42;;;;;;;1.90;0.80;;;;;;;;;;597245;23;1038;-75
2024/02/14 01:12:57;;;;;;;1.70;0.80;;;;;;;;;;597182;23;1209;-74
2024/02/14 01:13:12;;;;;;;2.10;0.88;;;;;;;;;;596893;23;1175;-75
2024/02/14 01:13:28;;;;;;;2.10;1.00;;;;;;;;;;599053;23;1140;-74
2024/02/14 01:13:43;;;;;;;2.08;1.00;;;;;;;;;;598026;23;1239;-74
2024/02/14 01:13:59;;;;;;;3.77;1.07;;;;;;;;;;593322;23;1092;-75
2024/02/14 01:14:14;;;;;;;3.90;1.20;;;;;;;;;;594075;23;790;-75
2024/02/14 01:14:31;;;;;;;2.28;0.98;;;;;;;;;;590425;23;1219;-75
2024/02/14 01:14:46;;;;;;;2.83;0.98;;;;;;;;;;592316;23;1183;-74
2024/02/14 01:15:02;;;;;;;3.03;1.00;;;;;;;;;;589452;23;1234;-75
2024/02/14 01:15:17;;;;;;;3.13;1.13;;;;;;;;;;590044;23;916;-74
2024/02/14 01:15:35;;;;;;;3.10;1.20;;;;;;;;;;593021;23;1196;-74
2024/02/14 01:15:51;;;;;;;2.42;0.98;;;;;;;;;;593743;23;1383;-75
2024/02/14 01:16:06;;;;;;;2.47;1.00;;;;;;;;;;596509;23;1190;-75
2024/02/14 01:16:25;;;;;;;2.75;1.00;;;;;;;;;;598216;23;1095;-75
2024/02/14 01:16:45;;;;;;;3.15;0.98;;;;;;;;;;597720;23;853;-74
2024/02/14 01:17:00;;;;;;;2.42;0.88;;;;;;;;;;597640;23;1116;-75
2024/02/14 01:17:16;;;;;;;2.00;0.88;;;;;;;;;;595762;23;1366;-75
2024/02/14 01:17:31;;;;;;;2.70;1.00;;;;;;;;;;595147;23;940;-74
2024/02/14 01:17:47;;;;;;;2.40;1.00;;;;;;;;;;597572;23;816;-75
2024/02/14 01:18:02;;;;;;;1.65;0.90;;;;;;;;;;594184;23;1228;-75
2024/02/14 01:18:18;;;;;;;1.40;0.80;;;;;;;;;;592888;23;785;-74
2024/02/14 01:18:33;;;;;;;2.23;0.87;;;;;;;;;;596555;23;1051;-74
2024/02/14 01:18:49;;;;;;;3.30;1.10;;;;;;;;;;596791;23;1072;-74
2024/02/14 01:19:05;;;;;;;3.75;1.25;;;;;;;;;;596881;23;790;-74
2024/02/14 01:19:23;;;;;;;5.25;1.17;;;;;;;;;;599913;23;1073;-74
2024/02/14 01:19:39;;;;;;;4.70;1.08;;;;;;;;;;601421;23;816;-74
2024/02/14 01:19:55;;;;;;;3.78;1.08;;;;;;;;;;601527;23;1089;-74
2024/02/14 01:20:10;;;;;;;2.95;1.00;;;;;;;;;;596150;23;1290;-75
2024/02/14 01:20:26;;;;;;;1.87;0.90;;;;;;;;;;598816;23;1177;-74
2024/02/14 01:20:41;;;;;;;1.45;0.82;;;;;;;;;;599675;23;754;-74
2024/02/14 01:20:58;;;;;;;1.67;0.90;;;;;;;;;;603373;23;1105;-75
2024/02/14 01:21:14;;;;;;;2.22;0.90;;;;;;;;;;600957;23;938;-74
2024/02/14 01:21:29;;;;;;;2.20;0.90;;;;;;;;;;599839;23;1113;-74
2024/02/14 01:21:48;;;;;;;2.17;0.90;;;;;;;;;;602728;23;1044;-75
2024/02/14 01:22:03;;;;;;;2.95;0.85;;;;;;;;;;602046;23;1031;-75
2024/02/14 01:22:19;;;;;;;3.30;1.00;;;;;;;;;;599197;23;1122;-74
2024/02/14 01:22:36;;;;;;;3.25;1.02;;;;;;;;;;600069;23;1056;-75
2024/02/14 01:22:51;;;;;;;2.88;0.90;;;;;;;;;;600423;23;895;-75
2024/02/14 01:23:06;;;;;;;1.83;0.90;;;;;;;;;;599770;23;1125;-75
2024/02/14 01:23:22;;;;;;;2.27;1.00;;;;;;;;;;596729;23;1233;-75
2024/02/14 01:23:37;;;;;;;1.80;0.85;;;;;;;;;;596811;23;1094;-74
2024/02/14 01:23:53;;;;;;;2.10;0.90;;;;;;;;;;594065;23;883;-75
2024/02/14 01:24:08;;;;;;;3.20;1.00;;;;;;;;;;595193;23;1569;-74
2024/02/14 01:24:26;;;;;;;2.87;1.00;;;;;;;;;;597265;23;1269;-74
2024/02/14 01:24:44;;;;;;;2.78;1.00;;;;;;;;;;596698;23;1254;-74
2024/02/14 01:25:00;;;;;;;2.88;0.80;;;;;;;;;;595994;23;1292;-75
2024/02/14 01:25:15;;;;;;;2.23;0.80;;;;;;;;;;594267;23;1170;-75
2024/02/14 01:25:32;;;;;;;2.23;0.90;;;;;;;;;;595809;23;887;-75
2024/02/14 01:25:48;;;;;;;2.10;0.90;;;;;;;;;;597053;23;769;-74
2024/02/14 01:26:03;;;;;;;2.53;1.00;;;;;;;;;;598768;23;1241;-75
2024/02/14 01:26:20;;;;;;;3.03;1.10;;;;;;;;;;599421;23;1171;-74
2024/02/14 01:26:36;;;;;;;3.40;1.00;;;;;;;;;;601326;23;887;-75
2024/02/14 01:26:51;;;;;;;3.67;1.00;;;;;;;;;;601780;23;1037;-74
2024/02/14 01:27:08;;;;;;;3.23;0.97;;;;;;;;;;600511;23;1038;-75
2024/02/14 01:27:24;;;;;;;2.40;0.90;;;;;;;;;;602126;23;1173;-75
2024/02/14 01:27:40;;;;;;;2.35;0.95;;;;;;;;;;602306;23;853;-74
2024/02/14 01:27:56;;;;;;;2.75;1.10;;;;;;;;;;601047;23;1982;-74
2024/02/14 01:28:11;;;;;;;2.27;1.10;;;;;;;;;;602616;23;917;-74
2024/02/14 01:28:27;;;;;;;2.63;1.00;;;;;;;;;;600703;23;1042;-75
2024/02/14 01:28:44;;;;;;;3.17;0.95;;;;;;;;;;601753;23;1021;-74
2024/02/14 01:29:00;;;;;;;2.63;0.80;;;;;;;;;;600704;23;1342;-75
2024/02/14 01:29:16;;;;;;;2.22;0.88;;;;;;;;;;594420;23;1047;-74
2024/02/14 01:29:32;;;;;;;2.20;0.90;;;;;;;;;;598000;23;895;-75
2024/02/14 01:29:47;;;;;;;2.35;1.00;;;;;;;;;;597635;23;1177;-74
2024/02/14 01:30:05;;;;;;;2.78;1.00;;;;;;;;;;598040;23;1312;-75
2024/02/14 01:30:20;;;;;;;3.28;1.08;;;;;;;;;;594715;23;857;-74
2024/02/14 01:30:36;;;;;;;3.00;1.10;;;;;;;;;;597502;23;1029;-74
2024/02/14 01:30:51;;;;;;;2.70;1.00;;;;;;;;;;601143;23;1069;-74
2024/02/14 01:31:11;;;;;;;3.33;1.00;;;;;;;;;;598743;23;1162;-74
2024/02/14 01:31:27;;;;;;;2.47;0.98;;;;;;;;;;598226;23;1269;-74
2024/02/14 01:31:42;;;;;;;2.20;0.90;;;;;;;;;;598301;23;1006;-74
2024/02/14 01:31:58;;;;;;;2.58;1.00;;;;;;;;;;597225;23;1066;-74
2024/02/14 01:32:14;;;;;;;2.80;0.93;;;;;;;;;;597719;23;1093;-74
2024/02/14 01:32:29;;;;;;;3.53;0.80;;;;;;;;;;598195;23;968;-74
2024/02/14 01:32:45;;;;;;;3.28;0.98;;;;;;;;;;599941;23;1376;-74
2024/02/14 01:33:01;;;;;;;2.70;1.07;;;;;;;;;;601500;23;931;-74
2024/02/14 01:33:16;;;;;;;3.35;1.00;;;;;;;;;;604782;23;1053;-74
2024/02/14 01:33:32;;;;;;;4.13;1.00;;;;;;;;;;604648;23;987;-74
2024/02/14 01:33:47;;;;;;;3.40;1.00;;;;;;;;;;603102;23;1287;-74
2024/02/14 01:34:02;;;;;;;3.08;1.13;;;;;;;;;;602923;23;1051;-74
2024/02/14 01:34:18;;;;;;;2.67;1.10;;;;;;;;;;600273;23;999;-75
2024/02/14 01:34:33;;;;;;;1.93;1.00;;;;;;;;;;600725;23;898;-75
2024/02/14 01:34:48;;;;;;;2.28;1.00;;;;;;;;;;600421;23;910;-74
2024/02/14 01:35:04;;;;;;;2.60;0.90;;;;;;;;;;601498;23;1202;-75
2024/02/14 01:35:20;;;;;;;2.90;0.93;;;;;;;;;;600918;23;1127;-75
2024/02/14 01:35:35;;;;;;;2.97;1.10;;;;;;;;;;597867;23;1147;-74
2024/02/14 01:35:50;;;;;;;2.63;1.07;;;;;;;;;;600956;23;714;-74
2024/02/14 01:36:06;;;;;;;1.83;0.90;;;;;;;;;;598115;23;1264;-74
2024/02/14 01:36:22;;;;;;;2.00;0.90;;;;;;;;;;599016;23;1001;-74
2024/02/14 01:36:38;;;;;;;3.13;1.10;;;;;;;;;;601269;23;1020;-75
2024/02/14 01:36:54;;;;;;;3.30;1.05;;;;;;;;;;599818;23;1331;-74
2024/02/14 01:37:10;;;;;;;2.95;1.10;;;;;;;;;;597829;23;1163;-74
2024/02/14 01:37:25;;;;;;;2.70;1.07;;;;;;;;;;595517;23;880;-75
2024/02/14 01:37:40;;;;;;;2.50;1.00;;;;;;;;;;597552;23;1290;-75
2024/02/14 01:37:57;;;;;;;2.57;0.83;;;;;;;;;;599337;23;1236;-75
2024/02/14 01:38:12;;;;;;;2.40;0.90;;;;;;;;;;601402;23;1354;-74